Terminal Aerodrome Forecast
Issued by NWS Chicago, IL

Home | Current Version | Previous Version | Graphics & Text | Print | Product List | Glossary On
Versions: 1 2 3 4 5 6 7 8 9 10 11 12 13 14 15 16 17 18 19 20 21 22 23 24
155
FTUS43 KLOT 242109 AAA
TAFRFD
TAF AMD
KRFD 242109Z 2421/2518 01012G18KT P6SM BKN015 OVC025
     FM250400 34009KT P6SM SCT007 OVC012
     FM251700 34012KT P6SM BKN018=

USA.gov is the U.S. government's official web portal to all federal, state and local government web resources and services.